Time;durP1;ratioP1;P1;durP2;ratioP2;P2;SDS_P1;SDS_P2;PMS_P1;PMS_P2;Temp;Humidity;BMP_temperature;BMP_pressure;BME280_temperature;BME280_humidity;BME280_pressure;Samples;Min_cycle;Max_cycle;Signal;HPM_P1;HPM_P2
2023/04/08 00:02:25;;;;;;;130.63;40.03;;;;;;;-144.87;100.00;61487.56;5027264;28;20046;-87
2023/04/08 00:04:53;;;;;;;121.70;36.47;;;;;;;-144.87;100.00;61487.56;5028938;28;20022;-86
2023/04/08 00:07:19;;;;;;;132.73;37.35;;;;;;;-144.87;100.00;61487.56;5030524;28;20049;-87
2023/04/08 00:10:05;;;;;;;129.45;39.30;;;;;;;-144.87;100.00;61487.56;5009891;28;20045;-87
2023/04/08 00:12:32;;;;;;;135.82;37.25;;;;;;;-144.87;100.00;61487.56;5015235;28;20551;-87
2023/04/08 00:14:59;;;;;;;139.63;38.13;;;;;;;-144.87;100.00;61487.56;5014567;28;20116;-86
2023/04/08 00:17:26;;;;;;;147.00;39.67;;;;;;;-144.87;100.00;61487.56;5029808;28;20038;-86
2023/04/08 00:19:54;;;;;;;138.23;38.70;;;;;;;-144.87;100.00;61487.56;5009321;28;20032;-86
2023/04/08 00:22:20;;;;;;;138.48;39.65;;;;;;;-144.87;100.00;61487.56;5014998;28;20034;-86
2023/04/08 00:24:47;;;;;;;149.60;38.55;;;;;;;-144.87;100.00;61487.56;5017021;28;20045;-86
2023/04/08 00:27:32;;;;;;;163.85;39.40;;;;;;;-144.87;100.00;61487.56;5031186;28;20048;-86
2023/04/08 00:30:00;;;;;;;140.95;37.40;;;;;;;-144.87;100.00;61487.56;5025311;28;20057;-87
2023/04/08 00:32:28;;;;;;;156.50;37.85;;;;;;;-144.87;100.00;61487.56;5029938;28;20045;-87
2023/04/08 00:34:54;;;;;;;163.23;39.00;;;;;;;-144.87;100.00;61487.56;5009455;28;20040;-87
2023/04/08 00:37:23;;;;;;;190.85;41.67;;;;;;;-144.87;100.00;61487.56;5021918;28;20045;-88
2023/04/08 00:40:11;;;;;;;193.38;42.83;;;;;;;-144.87;100.00;61487.56;5029777;28;20394;-87
2023/04/08 00:42:58;;;;;;;173.77;39.50;;;;;;;-144.87;100.00;61487.56;5028912;28;20083;-88
2023/04/08 00:45:26;;;;;;;170.07;39.22;;;;;;;-144.87;100.00;61487.56;5024357;28;20040;-88
2023/04/08 00:47:53;;;;;;;191.15;40.72;;;;;;;-144.87;100.00;61487.56;5011965;28;20029;-87
2023/04/08 00:50:24;;;;;;;200.25;40.83;;;;;;;-144.87;100.00;61487.56;5030277;28;20470;-86
2023/04/08 00:52:51;;;;;;;218.57;41.20;;;;;;;-144.87;100.00;61487.56;5012888;28;20520;-87
2023/04/08 00:55:17;;;;;;;565.70;45.83;;;;;;;-144.87;100.00;61487.56;5010885;28;21027;-87
2023/04/08 00:58:02;;;;;;;639.60;46.63;;;;;;;-144.87;100.00;61487.56;5027113;28;20037;-86
2023/04/08 01:00:30;;;;;;;910.17;55.97;;;;;;;-144.87;100.00;61487.56;5032105;28;20034;-86
2023/04/08 01:03:05;;;;;;;977.10;63.28;;;;;;;-144.87;100.00;61487.56;5011247;28;20041;-87
2023/04/08 01:05:56;;;;;;;638.88;51.42;;;;;;;-144.87;100.00;61487.56;5029790;28;20315;-87
2023/04/08 01:08:25;;;;;;;621.92;49.97;;;;;;;-144.87;100.00;61487.56;5016870;28;20033;-86
2023/04/08 01:10:53;;;;;;;793.30;51.17;;;;;;;-144.87;100.00;61487.56;5030960;28;20479;-87
2023/04/08 01:13:23;;;;;;;689.33;49.53;;;;;;;-144.87;100.00;61487.56;4995452;28;20029;-87
2023/04/08 01:15:51;;;;;;;655.17;50.17;;;;;;;-144.87;100.00;61487.56;5017037;28;20561;-87
2023/04/08 01:18:18;;;;;;;648.38;50.08;;;;;;;-144.87;100.00;61487.56;5001450;28;20406;-87
2023/04/08 01:20:45;;;;;;;506.10;42.72;;;;;;;-144.87;100.00;61487.56;5012044;28;20033;-87
2023/04/08 01:23:30;;;;;;;804.33;51.38;;;;;;;-144.87;100.00;61487.56;5029787;28;20030;-87
2023/04/08 01:25:57;;;;;;;835.22;52.63;;;;;;;-144.87;100.00;61487.56;5029538;28;20036;-87
2023/04/08 01:28:26;;;;;;;883.85;58.47;;;;;;;-144.87;100.00;61487.56;5027174;28;20060;-88
2023/04/08 01:30:56;;;;;;;725.38;51.30;;;;;;;-144.87;100.00;61487.56;5014476;28;20388;-88
2023/04/08 01:33:23;;;;;;;828.97;57.97;;;;;;;-144.87;100.00;61487.56;5028864;28;20039;-86
2023/04/08 01:35:51;;;;;;;840.53;52.70;;;;;;;-144.87;100.00;61487.56;5028351;28;20037;-87
2023/04/08 01:38:19;;;;;;;711.95;46.45;;;;;;;-144.87;100.00;61487.56;4993930;28;20029;-88
2023/04/08 01:41:25;;;;;;;534.00;42.50;;;;;;;-144.87;100.00;61487.56;5011084;28;20033;-88
2023/04/08 01:43:55;;;;;;;773.80;50.15;;;;;;;-144.87;100.00;61487.56;5026709;28;20038;-88
2023/04/08 01:46:21;;;;;;;809.55;51.95;;;;;;;-144.87;100.00;61487.56;5017079;28;20022;-87
2023/04/08 01:48:48;;;;;;;734.95;46.55;;;;;;;-144.87;100.00;61487.56;5017346;28;20060;-87
2023/04/08 01:51:14;;;;;;;802.63;48.65;;;;;;;-144.87;100.00;61487.56;5028206;28;20049;-88
2023/04/08 01:53:44;;;;;;;655.72;46.08;;;;;;;-144.87;100.00;61487.56;5006460;28;20475;-88
2023/04/08 01:56:12;;;;;;;894.15;51.13;;;;;;;-144.87;100.00;61487.56;5010991;28;20034;-89
2023/04/08 01:58:50;;;;;;;507.33;41.97;;;;;;;-144.87;100.00;61487.56;4996941;28;20030;-88
2023/04/08 02:01:35;;;;;;;806.83;50.50;;;;;;;-144.87;100.00;61487.56;5017319;28;20032;-88
2023/04/08 02:04:03;;;;;;;771.50;47.97;;;;;;;-144.87;100.00;61487.56;5006175;28;20060;-88
2023/04/08 02:06:30;;;;;;;943.83;55.67;;;;;;;-144.87;100.00;61487.56;5014538;28;20174;-88
2023/04/08 02:09:00;;;;;;;872.38;54.28;;;;;;;-144.87;100.00;61487.56;4996092;28;20025;-87
2023/04/08 02:11:28;;;;;;;472.70;41.08;;;;;;;-144.87;100.00;61487.56;5027959;28;20116;-85
2023/04/08 02:13:54;;;;;;;630.28;46.47;;;;;;;-144.87;100.00;61487.56;5029556;28;20034;-87
2023/04/08 02:16:39;;;;;;;836.67;53.75;;;;;;;-144.87;100.00;61487.56;5014048;28;20152;-85
2023/04/08 02:22:42;;;;;;;745.83;52.03;;;;;;;-144.87;100.00;61487.56;5027252;28;20034;-87
2023/04/08 02:25:12;;;;;;;750.80;52.30;;;;;;;-144.87;100.00;61487.56;5007460;28;20030;-87
2023/04/08 02:27:43;;;;;;;704.15;53.85;;;;;;;-144.87;100.00;61487.56;5014250;28;20025;-87
2023/04/08 02:30:10;;;;;;;819.60;56.43;;;;;;;-144.87;100.00;61487.56;5011839;28;20049;-87
2023/04/08 02:32:37;;;;;;;736.28;47.97;;;;;;;-144.87;100.00;61487.56;5026599;28;20110;-87
2023/04/08 02:35:23;;;;;;;973.42;56.20;;;;;;;-144.87;100.00;61487.56;5012482;28;20038;-87
2023/04/08 02:37:50;;;;;;;826.78;59.60;;;;;;;-144.87;100.00;61487.56;5009773;28;20033;-87
2023/04/08 02:40:27;;;;;;;787.17;55.67;;;;;;;-144.87;100.00;61487.56;5001035;28;20112;-87
2023/04/08 02:42:55;;;;;;;907.05;60.80;;;;;;;-144.87;100.00;61487.56;5029825;28;20090;-87
2023/04/08 02:45:29;;;;;;;903.63;55.27;;;;;;;-144.87;100.00;61487.56;5008824;28;20037;-87
2023/04/08 02:47:58;;;;;;;735.25;53.47;;;;;;;-144.87;100.00;61487.56;5024707;28;20292;-87
2023/04/08 02:50:24;;;;;;;382.70;45.75;;;;;;;-144.87;100.00;61487.56;5024463;28;20037;-87
2023/04/08 02:52:50;;;;;;;912.83;61.55;;;;;;;-144.87;100.00;61487.56;5026564;28;20521;-87
2023/04/08 02:55:17;;;;;;;781.22;57.03;;;;;;;-144.87;100.00;61487.56;4982985;28;20048;-87
2023/04/08 02:57:43;;;;;;;896.40;64.18;;;;;;;-144.87;100.00;61487.56;5026967;28;20041;-86
2023/04/08 03:00:10;;;;;;;840.17;61.40;;;;;;;-144.87;100.00;61487.56;5023993;28;20037;-86
2023/04/08 03:02:41;;;;;;;770.30;60.10;;;;;;;-144.87;100.00;61487.56;5028695;28;20041;-87
2023/04/08 03:05:08;;;;;;;567.05;54.08;;;;;;;-144.87;100.00;61487.56;5013290;28;20033;-87
2023/04/08 03:07:35;;;;;;;765.40;60.60;;;;;;;-144.87;100.00;61487.56;5012950;28;20041;-85
2023/04/08 03:10:21;;;;;;;460.05;52.22;;;;;;;-144.87;100.00;61487.56;5032921;28;20115;-87
2023/04/08 03:12:47;;;;;;;892.97;66.35;;;;;;;-144.87;100.00;61487.56;5028113;28;20034;-87
2023/04/08 03:15:14;;;;;;;672.20;59.58;;;;;;;-144.87;100.00;61487.56;5029516;28;20029;-86
2023/04/08 03:17:41;;;;;;;626.95;56.53;;;;;;;-144.87;100.00;61487.56;5032492;28;20040;-86
2023/04/08 03:20:08;;;;;;;423.17;51.78;;;;;;;-144.87;100.00;61487.56;5032109;28;20091;-86
2023/04/08 03:22:36;;;;;;;828.67;62.90;;;;;;;-144.87;100.00;61487.56;5029367;28;20045;-87
2023/04/08 03:25:22;;;;;;;823.80;68.05;;;;;;;-144.87;100.00;61487.56;5031547;28;20051;-86
2023/04/08 03:27:50;;;;;;;696.67;62.20;;;;;;;-144.87;100.00;61487.56;5031342;28;20658;-87
2023/04/08 03:30:17;;;;;;;1054.28;72.38;;;;;;;-144.87;100.00;61487.56;5029796;28;20104;-86
2023/04/08 03:32:43;;;;;;;723.20;65.95;;;;;;;-144.87;100.00;61487.56;5032282;28;20041;-87
2023/04/08 03:35:10;;;;;;;657.45;74.38;;;;;;;-144.87;100.00;61487.56;5029509;28;20375;-85
2023/04/08 03:37:36;;;;;;;662.20;76.15;;;;;;;-144.87;100.00;61487.56;5033147;28;20150;-86
2023/04/08 03:40:03;;;;;;;615.85;71.63;;;;;;;-144.87;100.00;61487.56;5031325;28;20034;-86
2023/04/08 03:42:29;;;;;;;647.13;72.65;;;;;;;-144.87;100.00;61487.56;5017274;28;20045;-87
2023/04/08 03:44:56;;;;;;;629.38;72.07;;;;;;;-144.87;100.00;61487.56;5031264;28;20041;-87
2023/04/08 03:47:25;;;;;;;528.78;69.28;;;;;;;-144.87;100.00;61487.56;5031556;28;20047;-86
2023/04/08 03:49:54;;;;;;;524.65;74.55;;;;;;;-144.87;100.00;61487.56;5029039;28;20026;-86
2023/04/08 03:52:20;;;;;;;551.00;72.38;;;;;;;-144.87;100.00;61487.56;5014894;28;20122;-86
2023/04/08 03:54:47;;;;;;;505.73;69.03;;;;;;;-144.87;100.00;61487.56;5015288;28;20033;-86
2023/04/08 03:57:13;;;;;;;697.28;78.28;;;;;;;-144.87;100.00;61487.56;5029753;28;20502;-87
2023/04/08 03:59:59;;;;;;;757.78;80.47;;;;;;;-144.87;100.00;61487.56;5016654;28;20036;-86
2023/04/08 04:02:26;;;;;;;420.15;69.15;;;;;;;-144.87;100.00;61487.56;5012006;28;20029;-86
2023/04/08 04:04:52;;;;;;;404.65;73.07;;;;;;;-144.87;100.00;61487.56;5027531;28;20059;-86
2023/04/08 04:07:58;;;;;;;415.35;73.82;;;;;;;-144.87;100.00;61487.56;5031425;28;20069;-85
2023/04/08 04:10:25;;;;;;;409.33;73.88;;;;;;;-144.87;100.00;61487.56;5029556;28;20033;-87
2023/04/08 04:12:51;;;;;;;403.90;74.63;;;;;;;-144.87;100.00;61487.56;5028877;28;20501;-87
2023/04/08 04:15:19;;;;;;;345.77;74.57;;;;;;;-144.87;100.00;61487.56;5015752;28;20472;-86
2023/04/08 04:17:49;;;;;;;421.00;80.13;;;;;;;-144.87;100.00;61487.56;5028768;28;20041;-87
2023/04/08 04:20:16;;;;;;;380.35;75.75;;;;;;;-144.87;100.00;61487.56;5023621;28;20120;-86
2023/04/08 04:22:43;;;;;;;399.98;77.90;;;;;;;-144.87;100.00;61487.56;5029832;28;20030;-86
2023/04/08 04:25:10;;;;;;;558.65;84.47;;;;;;;-144.87;100.00;61487.56;5014110;28;20030;-86
2023/04/08 04:27:36;;;;;;;689.03;88.28;;;;;;;-144.87;100.00;61487.56;5031543;28;20029;-86
2023/04/08 04:30:03;;;;;;;473.10;79.93;;;;;;;-144.87;100.00;61487.56;5027369;28;20041;-87
2023/04/08 04:32:31;;;;;;;576.75;87.88;;;;;;;-144.87;100.00;61487.56;5017887;28;20513;-87
2023/04/08 04:34:57;;;;;;;631.95;85.72;;;;;;;-144.87;100.00;61487.56;5019717;28;20037;-87
2023/04/08 04:37:23;;;;;;;590.60;87.00;;;;;;;-144.87;100.00;61487.56;5030863;28;20045;-87
2023/04/08 04:39:50;;;;;;;577.88;86.05;;;;;;;-144.87;100.00;61487.56;5032402;28;20033;-87
2023/04/08 04:42:17;;;;;;;580.40;87.15;;;;;;;-144.87;100.00;61487.56;5028857;28;20096;-86
2023/04/08 04:44:45;;;;;;;540.72;87.75;;;;;;;-144.87;100.00;61487.56;5031964;28;20087;-86
2023/04/08 04:47:15;;;;;;;473.70;85.50;;;;;;;-144.87;100.00;61487.56;5031927;28;20399;-87
2023/04/08 04:49:41;;;;;;;397.43;85.23;;;;;;;-144.87;100.00;61487.56;5030319;28;20026;-87
2023/04/08 04:52:08;;;;;;;303.35;78.13;;;;;;;-144.87;100.00;61487.56;5027201;28;20037;-87
2023/04/08 04:54:35;;;;;;;276.77;78.05;;;;;;;-144.87;100.00;61487.56;5012501;28;20116;-87
2023/04/08 04:57:01;;;;;;;294.92;78.55;;;;;;;-144.87;100.00;61487.56;5029507;28;20038;-86
2023/04/08 04:59:27;;;;;;;277.92;75.75;;;;;;;-144.87;100.00;61487.56;5010103;28;20454;-86
2023/04/08 05:01:56;;;;;;;244.55;74.88;;;;;;;-144.87;100.00;61487.56;5030281;28;20037;-86
2023/04/08 05:04:23;;;;;;;270.73;72.40;;;;;;;-144.87;100.00;61487.56;5030262;28;20077;-87
2023/04/08 05:06:49;;;;;;;231.55;72.22;;;;;;;-144.87;100.00;61487.56;5028028;28;20459;-87
2023/04/08 05:09:16;;;;;;;173.63;62.15;;;;;;;-144.87;100.00;61487.56;5011435;28;20059;-86
2023/04/08 05:11:42;;;;;;;155.40;60.75;;;;;;;-144.87;100.00;61487.56;5007537;28;20068;-87
2023/04/08 05:14:09;;;;;;;127.03;55.03;;;;;;;-144.87;100.00;61487.56;5011065;28;20044;-87
2023/04/08 05:16:35;;;;;;;126.13;53.33;;;;;;;-144.87;100.00;61487.56;5027661;28;20165;-87
2023/04/08 05:19:02;;;;;;;118.38;53.20;;;;;;;-144.87;100.00;61487.56;5013945;28;20463;-86
2023/04/08 05:21:28;;;;;;;124.45;52.10;;;;;;;-144.87;100.00;61487.56;5029372;28;20037;-86
2023/04/08 05:23:54;;;;;;;124.97;52.90;;;;;;;-144.87;100.00;61487.56;5025935;28;20446;-86
2023/04/08 05:27:00;;;;;;;121.72;50.58;;;;;;;-144.87;100.00;61487.56;5010987;28;20058;-86
2023/04/08 05:29:26;;;;;;;127.00;52.55;;;;;;;-144.87;100.00;61487.56;5024641;28;20142;-89
2023/04/08 05:31:52;;;;;;;287.60;61.20;;;;;;;-144.87;100.00;61487.56;5026712;28;20033;-86
2023/04/08 05:34:21;;;;;;;713.17;77.05;;;;;;;-144.87;100.00;61487.56;5010483;28;20049;-86
2023/04/08 05:36:52;;;;;;;822.45;84.70;;;;;;;-144.87;100.00;61487.56;5016914;28;20033;-86
2023/04/08 05:42:43;;;;;;;885.42;87.85;;;;;;;-144.87;100.00;61487.56;5027243;28;20122;-86
2023/04/08 05:45:10;;;;;;;767.47;87.63;;;;;;;-144.87;100.00;61487.56;5029896;28;20025;-87
2023/04/08 05:47:36;;;;;;;1024.03;99.65;;;;;;;-144.87;100.00;61487.56;5033356;28;20045;-85
2023/04/08 05:50:02;;;;;;;635.03;85.15;;;;;;;-144.87;100.00;61487.56;5014168;28;20052;-86
2023/04/08 05:52:29;;;;;;;412.17;74.80;;;;;;;-144.87;100.00;61487.56;5028098;28;20060;-88
2023/04/08 05:54:55;;;;;;;322.83;69.97;;;;;;;-144.87;100.00;61487.56;5031005;28;20037;-87
2023/04/08 05:57:21;;;;;;;451.65;81.40;;;;;;;-144.87;100.00;61487.56;5027000;28;20034;-87
2023/04/08 05:59:48;;;;;;;445.55;77.95;;;;;;;-144.87;100.00;61487.56;5027037;28;20045;-86
2023/04/08 06:02:16;;;;;;;548.17;75.55;;;;;;;-144.87;100.00;61487.56;5031825;28;20037;-86
2023/04/08 06:05:02;;;;;;;399.00;67.47;;;;;;;-144.87;100.00;61487.56;5027860;28;20422;-87
2023/04/08 06:07:29;;;;;;;436.13;63.58;;;;;;;-144.87;100.00;61487.56;5030256;28;20029;-87
2023/04/08 06:10:14;;;;;;;414.40;58.28;;;;;;;-144.87;100.00;61487.56;5030633;28;20038;-89
2023/04/08 06:16:14;;;;;;;380.45;62.80;;;;;;;-144.87;100.00;61487.56;5028696;28;20503;-87
2023/04/08 06:18:40;;;;;;;186.27;57.92;;;;;;;-144.87;100.00;61487.56;5032114;28;20029;-87
2023/04/08 06:21:06;;;;;;;187.60;56.72;;;;;;;-144.87;100.00;61487.56;5013518;28;20033;-88
2023/04/08 06:24:10;;;;;;;262.35;56.08;;;;;;;-144.87;100.00;61487.56;5032418;28;20041;-89
2023/04/08 06:27:15;;;;;;;340.95;57.15;;;;;;;-144.87;100.00;61487.56;5028688;28;20160;-87
2023/04/08 06:29:41;;;;;;;108.07;46.55;;;;;;;-144.87;100.00;61487.56;5031562;28;20045;-87
2023/04/08 06:32:08;;;;;;;103.80;49.95;;;;;;;-144.87;100.00;61487.56;5030446;28;20042;-88
2023/04/08 06:34:34;;;;;;;87.07;45.95;;;;;;;-144.87;100.00;61487.56;5009759;28;20045;-87
2023/04/08 06:37:00;;;;;;;63.10;39.40;;;;;;;-144.87;100.00;61487.56;5030011;28;20079;-87
2023/04/08 06:39:27;;;;;;;56.67;35.85;;;;;;;-144.87;100.00;61487.56;5029197;28;20052;-88
2023/04/08 06:41:53;;;;;;;48.80;33.88;;;;;;;-144.87;100.00;61487.56;5026387;28;20041;-89
2023/04/08 06:44:33;;;;;;;43.30;30.20;;;;;;;-144.87;100.00;61487.56;4996648;28;20033;-88
2023/04/08 06:47:00;;;;;;;38.58;27.35;;;;;;;-144.87;100.00;61487.56;5020864;28;20029;-87
2023/04/08 06:49:26;;;;;;;39.70;27.08;;;;;;;-144.87;100.00;61487.56;5035064;28;20073;-86
2023/04/08 06:51:53;;;;;;;37.50;25.95;;;;;;;-144.87;100.00;61487.56;5037519;28;20388;-86
2023/04/08 06:54:20;;;;;;;32.70;23.67;;;;;;;-144.87;100.00;61487.56;5004119;28;20136;-86
2023/04/08 07:00:22;;;;;;;34.45;22.77;;;;;;;-144.87;100.00;61487.56;5042275;28;20042;-86
2023/04/08 07:02:49;;;;;;;36.05;21.23;;;;;;;-144.87;100.00;61487.56;5017166;28;20059;-87
2023/04/08 07:05:17;;;;;;;31.77;21.02;;;;;;;-144.87;100.00;61487.56;5036420;28;20072;-88
2023/04/08 07:08:03;;;;;;;36.00;20.92;;;;;;;-144.87;100.00;61487.56;5016158;28;20640;-89
2023/04/08 07:10:48;;;;;;;29.30;20.02;;;;;;;-144.87;100.00;61487.56;5039839;28;20398;-88
2023/04/08 07:13:15;;;;;;;26.92;19.73;;;;;;;-144.87;100.00;61487.56;5010980;28;20038;-87
2023/04/08 07:15:43;;;;;;;28.38;19.58;;;;;;;-144.87;100.00;61487.56;5015763;28;20030;-86
2023/04/08 07:18:09;;;;;;;25.10;18.60;;;;;;;-144.87;100.00;61487.56;5011503;28;20049;-87
2023/04/08 07:20:37;;;;;;;25.58;17.65;;;;;;;-144.87;100.00;61487.56;5020303;28;20473;-86
2023/04/08 07:23:03;;;;;;;24.65;17.33;;;;;;;-144.87;100.00;61487.56;5020385;28;20030;-86
2023/04/08 07:25:51;;;;;;;22.48;16.75;;;;;;;-144.87;100.00;61487.56;5029939;28;20056;-87
2023/04/08 07:28:17;;;;;;;23.13;16.15;;;;;;;-144.87;100.00;61487.56;5045446;28;20759;-87
2023/04/08 07:30:44;;;;;;;22.88;15.73;;;;;;;-144.87;100.00;61487.56;5032203;28;20069;-87
2023/04/08 07:33:10;;;;;;;21.13;15.63;;;;;;;-144.87;100.00;61487.56;5036538;28;20059;-87
2023/04/08 07:35:37;;;;;;;21.58;16.50;;;;;;;-144.87;100.00;61487.56;5035382;28;20037;-87
2023/04/08 07:38:24;;;;;;;23.60;16.65;;;;;;;-144.87;100.00;61487.56;5033756;28;20106;-87
2023/04/08 07:41:10;;;;;;;20.30;15.27;;;;;;;-144.87;100.00;61487.56;5037375;28;20190;-87
2023/04/08 07:43:37;;;;;;;20.40;15.35;;;;;;;-144.87;100.00;61487.56;5031817;28;20025;-87
2023/04/08 07:46:05;;;;;;;31.30;16.25;;;;;;;-144.87;100.00;61487.56;5033984;28;20069;-87
2023/04/08 07:48:34;;;;;;;28.13;16.38;;;;;;;-144.87;100.00;61487.56;5051908;28;20098;-87
2023/04/08 07:51:05;;;;;;;23.42;16.40;;;;;;;-144.87;100.00;61487.56;5013342;28;20052;-87
2023/04/08 07:53:34;;;;;;;18.60;14.93;;;;;;;-144.87;100.00;61487.56;5027256;28;20037;-85
2023/04/08 07:56:02;;;;;;;24.02;15.90;;;;;;;-144.87;100.00;61487.56;5034864;28;20033;-88
2023/04/08 07:58:30;;;;;;;21.55;14.75;;;;;;;-144.87;100.00;61487.56;5034547;28;20028;-88
2023/04/08 08:00:57;;;;;;;20.95;15.15;;;;;;;-144.87;100.00;61487.56;5012826;28;20391;-88
2023/04/08 08:03:26;;;;;;;20.20;15.25;;;;;;;-144.87;100.00;61487.56;5034083;28;20120;-87
2023/04/08 08:05:52;;;;;;;16.40;13.52;;;;;;;-144.87;100.00;61487.56;5017225;28;20040;-87
2023/04/08 08:08:18;;;;;;;25.50;14.02;;;;;;;-144.87;100.00;61487.56;4999907;28;20088;-86
2023/04/08 08:10:45;;;;;;;17.38;13.85;;;;;;;-144.87;100.00;61487.56;5015699;28;20046;-88
2023/04/08 08:13:17;;;;;;;19.23;13.77;;;;;;;-144.87;100.00;61487.56;5007115;28;20445;-88
2023/04/08 08:15:43;;;;;;;19.20;13.35;;;;;;;-144.87;100.00;61487.56;5017451;28;20394;-87
2023/04/08 08:18:09;;;;;;;16.88;12.70;;;;;;;-144.87;100.00;61487.56;5012353;28;20166;-87
2023/04/08 08:20:36;;;;;;;22.25;13.85;;;;;;;-144.87;100.00;61487.56;5044217;28;20041;-88
2023/04/08 08:23:02;;;;;;;22.98;13.48;;;;;;;-144.87;100.00;61487.56;5032258;28;20045;-87
2023/04/08 08:25:28;;;;;;;22.92;13.68;;;;;;;-144.87;100.00;61487.56;5030642;28;20045;-87
2023/04/08 08:27:54;;;;;;;22.73;14.07;;;;;;;-144.87;100.00;61487.56;5030330;28;20080;-87
2023/04/08 08:30:21;;;;;;;17.35;13.05;;;;;;;-144.87;100.00;61487.56;5029859;28;20115;-86
2023/04/08 08:32:50;;;;;;;20.70;12.88;;;;;;;-144.87;100.00;61487.56;5029365;28;20487;-87
2023/04/08 08:35:36;;;;;;;15.35;12.80;;;;;;;-144.87;100.00;61487.56;5009372;28;20128;-86
2023/04/08 08:38:04;;;;;;;17.55;14.00;;;;;;;-144.87;100.00;61487.56;5031407;28;20030;-88
2023/04/08 08:40:32;;;;;;;16.83;12.45;;;;;;;-144.87;100.00;61487.56;5027387;28;20034;-88
2023/04/08 08:43:19;;;;;;;34.58;14.73;;;;;;;-144.87;100.00;61487.56;5025372;28;20087;-89
2023/04/08 08:45:47;;;;;;;17.58;12.73;;;;;;;-144.87;100.00;61487.56;5033190;28;20029;-86
2023/04/08 08:48:13;;;;;;;17.30;13.02;;;;;;;-144.87;100.00;61487.56;5016277;28;20108;-87
2023/04/08 08:50:40;;;;;;;17.58;13.02;;;;;;;-144.87;100.00;61487.56;5036449;28;20037;-88
2023/04/08 08:53:06;;;;;;;18.50;12.07;;;;;;;-144.87;100.00;61487.56;5040257;28;20045;-87
2023/04/08 08:55:32;;;;;;;21.58;13.10;;;;;;;-144.87;100.00;61487.56;5012294;28;20394;-88
2023/04/08 08:58:00;;;;;;;16.50;11.98;;;;;;;-144.87;100.00;61487.56;5029790;28;20033;-87
2023/04/08 09:00:33;;;;;;;15.70;12.30;;;;;;;-144.87;100.00;61487.56;5030203;28;20033;-88
2023/04/08 09:03:17;;;;;;;17.52;11.57;;;;;;;-144.87;100.00;61487.56;5030509;28;20030;-88
2023/04/08 09:05:55;;;;;;;20.95;12.45;;;;;;;-144.87;100.00;61487.56;5030189;28;20025;-89
2023/04/08 09:08:30;;;;;;;17.83;12.82;;;;;;;-144.87;100.00;61487.56;5035224;28;20548;-88
2023/04/08 09:11:11;;;;;;;16.55;12.73;;;;;;;-144.87;100.00;61487.56;5033353;28;20037;-89
2023/04/08 09:13:39;;;;;;;;;;;;;;;-144.87;100.00;61487.56;5028449;28;20100;-88
2023/04/08 09:16:10;;;;;;;18.15;11.95;;;;;;;-144.87;100.00;61487.56;4994876;28;20294;-87
2023/04/08 09:18:37;;;;;;;20.95;12.40;;;;;;;-144.87;100.00;61487.56;5031090;28;20491;-86
2023/04/08 09:21:05;;;;;;;19.60;11.73;;;;;;;-144.87;100.00;61487.56;5026307;28;20041;-88
2023/04/08 09:23:48;;;;;;;28.52;16.88;;;;;;;-144.87;100.00;61487.56;5046531;28;20025;-89
2023/04/08 09:26:23;;;;;;;15.48;11.55;;;;;;;-144.87;100.00;61487.56;5013964;28;20028;-88
2023/04/08 09:29:00;;;;;;;16.08;12.65;;;;;;;-144.87;100.00;61487.56;5037407;28;20033;-88
2023/04/08 09:31:28;;;;;;;16.25;12.07;;;;;;;-144.87;100.00;61487.56;5033868;28;20058;-89
2023/04/08 09:33:57;;;;;;;21.77;11.95;;;;;;;-144.87;100.00;61487.56;5036187;28;20167;-90
2023/04/08 09:36:25;;;;;;;17.83;12.40;;;;;;;-144.87;100.00;61487.56;5051086;28;20070;-88
2023/04/08 09:38:52;;;;;;;17.40;12.35;;;;;;;-144.87;100.00;61487.56;5028929;28;20121;-90
2023/04/08 09:41:37;;;;;;;17.58;12.07;;;;;;;-144.87;100.00;61487.56;5022987;28;20142;-90
2023/04/08 09:44:06;;;;;;;19.10;12.85;;;;;;;-144.87;100.00;61487.56;5015834;28;20026;-87
2023/04/08 09:46:53;;;;;;;15.75;12.75;;;;;;;-144.87;100.00;61487.56;5019644;28;20468;-90
2023/04/08 09:49:35;;;;;;;18.10;12.48;;;;;;;-144.87;100.00;61487.56;5044022;28;20032;-88
2023/04/08 09:52:27;;;;;;;18.73;12.55;;;;;;;-144.87;100.00;61487.56;5035798;28;20035;-87
2023/04/08 09:55:13;;;;;;;15.60;12.48;;;;;;;-144.87;100.00;61487.56;5034191;28;20033;-89
2023/04/08 09:58:04;;;;;;;18.42;12.07;;;;;;;-144.87;100.00;61487.56;5028987;28;20025;-85
2023/04/08 10:00:49;;;;;;;23.38;12.90;;;;;;;-144.87;100.00;61487.56;5016455;28;20479;-88
2023/04/08 10:03:28;;;;;;;16.20;12.27;;;;;;;-144.87;100.00;61487.56;5050535;28;20120;-87
2023/04/08 10:05:57;;;;;;;22.20;11.68;;;;;;;-144.87;100.00;61487.56;5048030;28;20037;-89
2023/04/08 10:08:25;;;;;;;17.27;11.98;;;;;;;-144.87;100.00;61487.56;5024290;28;20029;-87
2023/04/08 10:10:55;;;;;;;17.02;11.45;;;;;;;-144.87;100.00;61487.56;5036896;28;20050;-87
2023/04/08 10:13:21;;;;;;;18.33;11.33;;;;;;;-144.87;100.00;61487.56;4997668;28;20030;-86
2023/04/08 10:15:48;;;;;;;16.02;11.23;;;;;;;-144.87;100.00;61487.56;5023591;28;20086;-85
2023/04/08 10:18:33;;;;;;;16.17;11.52;;;;;;;-144.87;100.00;61487.56;5013762;28;20041;-86
2023/04/08 10:21:00;;;;;;;19.75;12.57;;;;;;;-144.87;100.00;61487.56;5036099;28;20398;-87
2023/04/08 10:23:54;;;;;;;27.02;12.30;;;;;;;-144.87;100.00;61487.56;5030313;28;20048;-86
2023/04/08 10:26:32;;;;;;;20.27;11.55;;;;;;;-144.87;100.00;61487.56;5025213;28;20120;-87
2023/04/08 10:29:17;;;;;;;15.73;11.60;;;;;;;-144.87;100.00;61487.56;5011780;28;20389;-85
2023/04/08 10:31:45;;;;;;;15.55;11.68;;;;;;;-144.87;100.00;61487.56;5030276;28;20061;-85
2023/04/08 10:34:18;;;;;;;17.88;11.38;;;;;;;-144.87;100.00;61487.56;5031366;28;20560;-85
2023/04/08 10:36:45;;;;;;;16.83;10.80;;;;;;;-144.87;100.00;61487.56;5012981;28;20049;-86
2023/04/08 10:39:12;;;;;;;14.55;10.77;;;;;;;-144.87;100.00;61487.56;5022153;28;20045;-87
2023/04/08 10:41:45;;;;;;;29.83;12.63;;;;;;;-144.87;100.00;61487.56;5019132;28;20055;-85
2023/04/08 10:44:19;;;;;;;18.20;12.55;;;;;;;-144.87;100.00;61487.56;5010668;28;20036;-85
2023/04/08 10:46:46;;;;;;;14.43;11.27;;;;;;;-144.87;100.00;61487.56;5030870;28;20381;-84
2023/04/08 10:49:13;;;;;;;14.05;10.43;;;;;;;-144.87;100.00;61487.56;5033199;28;20029;-84
2023/04/08 10:52:00;;;;;;;18.98;11.45;;;;;;;-144.87;100.00;61487.56;5034213;28;20093;-84
2023/04/08 10:55:04;;;;;;;22.30;11.27;;;;;;;-144.87;100.00;61487.56;5031537;28;20116;-86
2023/04/08 10:57:30;;;;;;;14.77;10.35;;;;;;;-144.87;100.00;61487.56;5041681;28;20119;-85
2023/04/08 10:59:56;;;;;;;17.95;10.70;;;;;;;-144.87;100.00;61487.56;5023422;28;20057;-84
2023/04/08 11:02:32;;;;;;;12.60;10.30;;;;;;;-144.87;100.00;61487.56;5033108;28;20042;-84
2023/04/08 11:05:00;;;;;;;15.93;10.45;;;;;;;-144.87;100.00;61487.56;5032417;28;20108;-82
2023/04/08 11:07:26;;;;;;;13.63;10.52;;;;;;;-144.87;100.00;61487.56;5031133;28;20041;-82
2023/04/08 11:09:54;;;;;;;18.50;11.15;;;;;;;-144.87;100.00;61487.56;5043129;28;20045;-83
2023/04/08 11:12:22;;;;;;;15.73;9.95;;;;;;;-144.87;100.00;61487.56;5023716;28;20045;-83
2023/04/08 11:15:09;;;;;;;15.80;10.38;;;;;;;-144.87;100.00;61487.56;5003185;28;20057;-83
2023/04/08 11:17:37;;;;;;;15.75;10.27;;;;;;;-144.87;100.00;61487.56;5030761;28;20116;-83
2023/04/08 11:20:05;;;;;;;17.40;9.60;;;;;;;-144.87;100.00;61487.56;5019811;28;20124;-83
2023/04/08 11:22:35;;;;;;;16.65;10.02;;;;;;;-144.87;100.00;61487.56;5013876;28;20034;-83